Seguin, TX

10:52 AM CDT on September 23, 2014 (GMT -0500)
Eastgate | Change Station
CLOSE
Current Station
Personal Weather Station
Location: Seguin, TX
Elevation: 541 ft
Nearby Weather Stations

Elev 541 ft 29.57 °N, 97.93 °W | Updated 1 second ago

Clear
Clear
79.4 °F
Feels Like 81 °F
N
0.0
Wind Variable Wind from North
Gusts 3.0 mph

Today
High -- | Low -- °F
--% Chance of Precip.
Yesterday
High -- | Low -- °F
Precip. -- in
7:20 AM 7:27 PM
Waning Crescent, 0% visible
Pressure 30.12 in
Visibility 10.0 miles
Clouds Clear
Heat Index 81 °F
Dew Point 62 °F
Humidity 55%
Rainfall 0.00 in
Snow Depth Not available.
UV 3 out of 12
Pollen 10.00 out of 12
Ozone Good
PM2.5 Good
Flu Activity Not available.
METAR KBAZ 231451Z 07008KT 10SM CLR 24/15 A3014 RMK AO2 SLP199 T02440150 51016

More Conditions Fewer Conditions

Pressure 30.12 in
Visibility 10.0 miles
Clouds Clear
Heat Index 81 °F
Dew Point 62 °F
Humidity 55%
Rainfall 0.00 in
Snow Depth Not available.
UV 3 out of 12
Pollen 10.00 out of 12
Ozone Good
PM2.5 Good
Flu Activity Not available.
METAR KBAZ 231451Z 07008KT 10SM CLR 24/15 A3014 RMK AO2 SLP199 T02440150 51016

More Conditions Fewer Conditions

10-Day Weather Forecast

Almanac

Astronomy

Sep. 23, 2014 Rise Set
Actual Time 7:20 AM CDT 7:27 PM CDT
Civil Twilight 6:57 AM CDT 7:50 PM CDT
Nautical Twilight 6:29 AM CDT 8:18 PM CDT
Astronomical Twilight 6:01 AM CDT 8:46 PM CDT
Moon 6:47 AM CDT 7:07 PM CDT
Length of Visible Light 12h 53m
Length of Day
12h 06m
Tomorrow will be 1m 46s shorter.
Waning Crescent, 0% of the Moon is Illuminated
Today
Waning Crescent
Sep 24
New
Oct 1
First Quarter
Oct 8
Full
Oct 15
Last Quarter

Today's Extremes

State Highs State Lows

Community

WunderPhotos

Upload Photos

1,755,727 photos uploaded!

WunderBlogs® & News

Nearby

Air Quality

  Air Quality AQ Index Pollutant
Yesterday Moderate
PM2.5
Yesterday Moderate
OZONE
Current Good
PM2.5
Current Good
OZONE
Tuesday Moderate
OZONE
Tuesday Good
PM10
Wednesday Moderate
OZONE
Wednesday Good
PM10
Thursday Moderate
OZONE
Thursday Good
PM10
Friday Moderate
OZONE
Friday Good
PM10

Snow Depth

Station Depth Elevation
No new snow has been reported.

Earthquake Activity

City Distance Mag. Time & Date
No recent earthquake activity has been reported nearby.
Minimum magnitude displayed is 2.5.

Coastal Water Temperatures

Place Temperature
No Stations Reporting

Nearby Weather Stations